Middletown, Kentucky
Current Conditions -  °F | °C
As of 4:53 PM on Saturday 20 Dec 2014 (Local Time) from KLOU Reporting Station
Overcast Overcast  
Wind Chill: 31°   Ceiling: 6000
Heat Index: 36°   Visibility: 10mi
Dew Point: 26°   Wind: 6mph
Humidity: 67%   Direction: 340°NNW
Pressure: 30.28"   Gusts: NA
Location:  38.2432°N, 85.5291°W
Report Text: KLOU 202153Z 34005KT 10SM FEW026 OVC060 02/M03 A3028 RMK AO2 SLP258 T00221033
Loading
Personal Weather Stations






























Interactive Weather Map New forecast layout! Learn more

10-Day Weather Forecast

Advertisements
Track Severe Weather on mobile